Plainfield, Wisconsin
Current Conditions -  °F | °C
As of 5:56 AM on Friday 31 Oct 2014 (Local Time) from KY50 Reporting Station
Scattered Clouds Scattered Clouds  
Wind Chill: 25°   Ceiling: Unl
Heat Index: 34°   Visibility: 10mi
Dew Point: 24°   Wind: 12mph
Humidity: 67%   Direction: 350°N
Pressure: 30.22"   Gusts: 25mph
Location:  44.21°N, 89.49°W
Report Text: KY50 311056Z AUTO 35010G22KT 10SM SCT034 01/M04 A3022 RMK AO2 TSNO T00111044 SLP238
Loading
Personal Weather Stations






























Interactive Weather Map
Tropical Storm Tracking
New forecast layout! Learn more

10-Day Weather Forecast

Advertisements
Track Severe Weather on mobile